Airfield :
LOGIN :

Register | Disclaimer

   EN    FR    IT 

 










Legend :    VFR   Marginal VFR   IFR   Intensive IFR   Very Intensive IFR
Visi :
Ceiling :
>= 8 km
>= 3000ft
5 to 8 km
1000 to 3000 ft
1500m to 5 km
500 to 1000 ft
800 to 1500m
200 to 500 ft
< 800m
< 200 ft
Symbols :   Thunderstorms  Fog  Heavy snow  Heavy precipitations  Wind > 20 kt
SIGMETs :     Misc.  Thunderstorms  Icing  Turbulence  Mountain Waves  Volcanic Ashes







- Airport Elevation : 242 ft
- IATA code : DUB


EIDW - Dublin

CURRENT METAR :
  • 241130Z 01007KT 330V080 9000 SCT004 BKN006 BKN040 16/14 Q1017 BECMG 9999 NSW FEW015

EXPIRED METARs :
  • 241100Z 36006KT 9000 SCT004 BKN006 BKN040 16/15 Q1016 RERA BECMG 9999 NSW FEW015
  • 241030Z 35006KT 280V030 4000 RA SCT004 BKN006 BKN040 15/14 Q1016 BECMG 9999 NSW FEW015
  • 241000Z 36005KT 320V030 8000 BKN003 BKN006 15/14 Q1016 BECMG 9999 NSW FEW015
  • 240930Z 36006KT 190V170 7000 SCT003 BKN005 15/14 Q1016 BECMG 9999 NSW FEW015
  • 240911Z 02005KT 240V160 6000 SCT002 BKN004 14/13 Q1016 BECMG 9999 NSW FEW015

TAF TAF EIDW
Valid from the 24 at 12:00 until the 25 at 12:00 UTC


241100Z 2412/2512 06007KT 9999 FEW015 BKN030
TEMPO 2412/2414 4000 SHRA BKN009 SCT020CB
PROB30
TEMPO 2412/2414 2500 TSRA BKN014CB
TEMPO 2414/2420 -SHRA SCT020CB
BECMG 2419/2421 VRB03KT
PROB30
TEMPO 2421/2506 2500 BR BKN002
BECMG 2422/2424 01005KT
No reported NOTAMs for that airfield.



MET'MAP, your aeronautical weather chart ! - Copyright ORBIFLY December 2007 - Disclaimer

ORBIFLY MET'MAP TEAM :

Programming & Development : Alexandra Zaïnal
Concept & Development : Baudouin d'Aumeries
Co-Development & Prog : Marc-Olivier Méhu
Technical & hardware support : Manuel Goepfert

Contact : metmap@orbifly.com




SOURCES & CREDITS :

   NOAA